Time;durP1;ratioP1;P1;durP2;ratioP2;P2;SDS_P1;SDS_P2;PMS_P1;PMS_P2;Temp;Humidity;BMP_temperature;BMP_pressure;BME280_temperature;BME280_humidity;BME280_pressure;Samples;Min_cycle;Max_cycle;Signal;HPM_P1;HPM_P2
2022/11/02 00:02:17;;;;;;;5.70;3.60;;;10.00;99.90;;;-141.84;79.65;18879.06;5031599;28;20233;-59
2022/11/02 00:04:45;;;;;;;3.77;3.07;;;10.00;99.90;;;-141.84;80.14;18921.75;5031969;28;20249;-60
2022/11/02 00:07:13;;;;;;;7.73;3.67;;;10.00;99.90;;;-141.84;80.31;18854.69;5031925;28;20206;-59
2022/11/02 00:09:41;;;;;;;6.10;3.10;;;9.90;99.90;;;-141.84;80.62;18903.44;5031592;28;20646;-60
2022/11/02 00:12:11;;;;;;;4.80;3.00;;;9.90;99.90;;;-141.84;81.27;18885.16;5031305;28;20226;-59
2022/11/02 00:14:39;;;;;;;4.57;2.90;;;9.80;99.90;;;-141.84;81.60;18860.78;5020599;28;20312;-61
2022/11/02 00:17:08;;;;;;;3.80;2.83;;;9.80;99.90;;;-141.84;81.89;18836.41;5011416;28;20231;-60
2022/11/02 00:19:36;;;;;;;5.97;3.13;;;9.70;99.90;;;-141.84;82.36;18842.50;5011741;28;20256;-60
2022/11/02 00:22:04;;;;;;;4.70;3.23;;;9.70;99.90;;;-141.84;82.87;18840.47;5011937;28;20227;-60
2022/11/02 00:24:33;;;;;;;3.93;3.00;;;9.60;99.90;;;-141.84;82.80;18852.66;5011183;28;20503;-60
2022/11/02 00:27:02;;;;;;;5.13;3.67;;;9.60;99.90;;;-141.84;83.06;18836.41;5025023;28;20233;-62
2022/11/02 00:29:33;;;;;;;5.93;3.20;;;9.60;99.90;;;-141.84;83.38;18858.75;5021594;28;20621;-60
2022/11/02 00:32:01;;;;;;;5.50;3.50;;;9.60;99.90;;;-141.84;83.77;18809.97;5011205;28;20651;-60
2022/11/02 00:34:29;;;;;;;4.27;2.90;;;9.50;99.90;;;-141.84;84.22;18828.28;5011368;28;20210;-59
2022/11/02 00:36:57;;;;;;;4.03;3.00;;;9.50;99.90;;;-141.84;84.16;18832.34;5011035;28;20211;-59
2022/11/02 00:39:25;;;;;;;4.97;2.60;;;9.50;99.90;;;-141.84;84.19;18834.38;5011180;28;20226;-60
2022/11/02 00:41:53;;;;;;;5.90;3.10;;;9.50;99.90;;;-141.84;83.69;18824.22;5010932;28;20621;-61
2022/11/02 00:44:21;;;;;;;5.00;2.80;;;9.50;99.90;;;-141.84;83.97;18836.41;5010879;28;20722;-59
2022/11/02 00:46:52;;;;;;;5.27;3.33;;;9.50;99.90;;;-141.84;84.45;18818.09;5011225;28;20314;-60
2022/11/02 00:49:20;;;;;;;4.60;4.00;;;9.50;99.90;;;-141.84;84.38;18820.16;5011250;28;20206;-60
2022/11/02 00:51:48;;;;;;;7.23;3.47;;;9.50;99.90;;;-141.84;83.67;18809.97;5011507;28;20195;-60
2022/11/02 00:54:16;;;;;;;4.17;3.17;;;9.50;99.90;;;-141.84;83.49;18785.59;5010976;28;20233;-61
2022/11/02 00:56:44;;;;;;;5.47;3.20;;;9.50;99.90;;;-141.84;84.22;18814.03;5011145;28;20333;-60
2022/11/02 00:59:12;;;;;;;6.47;3.47;;;9.50;99.90;;;-141.84;84.67;18818.09;5010566;28;20622;-61
2022/11/02 01:01:40;;;;;;;9.73;4.37;;;9.40;99.90;;;-141.84;84.82;18797.78;5011230;28;20277;-59
2022/11/02 01:04:09;;;;;;;5.47;3.40;;;9.40;99.90;;;-141.84;85.10;18775.44;5011458;28;20214;-59
2022/11/02 01:06:37;;;;;;;6.93;3.50;;;9.40;99.90;;;-141.84;85.25;18763.25;5007817;28;20222;-60
2022/11/02 01:09:06;;;;;;;5.47;3.73;;;9.40;99.90;;;-141.84;85.16;18822.19;4990856;28;20223;-60
2022/11/02 01:11:33;;;;;;;6.43;3.50;;;9.30;99.90;;;-141.84;84.97;18781.53;4991142;28;20227;-60
2022/11/02 01:14:02;;;;;;;5.60;3.30;;;9.30;99.90;;;-141.84;84.96;18789.66;4998082;28;20242;-61
2022/11/02 01:16:30;;;;;;;5.50;3.30;;;9.30;99.90;;;-141.84;85.20;18769.34;5010763;28;20210;-63
2022/11/02 01:18:59;;;;;;;5.67;3.40;;;9.30;99.90;;;-141.84;85.07;18781.53;5010855;28;20209;-61
2022/11/02 01:21:29;;;;;;;3.80;3.17;;;9.30;99.90;;;-141.84;83.93;18791.69;5010625;28;20234;-61
2022/11/02 01:23:57;;;;;;;8.63;3.73;;;9.30;99.90;;;-141.84;83.89;18767.31;5010554;28;20226;-62
2022/11/02 01:26:25;;;;;;;5.53;3.67;;;9.30;99.90;;;-141.84;83.74;18805.91;5011018;28;20285;-59
2022/11/02 01:28:54;;;;;;;5.90;2.97;;;9.30;99.90;;;-141.84;84.19;18777.47;5010648;28;20229;-61
2022/11/02 01:31:22;;;;;;;6.03;3.10;;;9.30;99.90;;;-141.84;84.21;18787.63;5012114;28;20199;-60
2022/11/02 01:33:51;;;;;;;7.27;3.80;;;9.30;99.90;;;-141.84;84.11;18787.63;5014555;28;20214;-60
2022/11/02 01:36:20;;;;;;;5.33;3.40;;;9.30;99.90;;;-141.84;84.14;18757.16;5014562;28;20289;-60
2022/11/02 01:38:50;;;;;;;5.77;3.10;;;9.30;99.90;;;-141.84;84.05;18793.72;5016677;28;20222;-60
2022/11/02 01:41:18;;;;;;;7.23;2.70;;;9.30;99.90;;;-141.84;84.53;18751.06;5014365;28;20577;-60
2022/11/02 01:43:51;;;;;;;5.03;3.03;;;9.20;99.90;;;-141.84;84.72;18779.50;5014276;28;20280;-59
2022/11/02 01:46:24;;;;;;;6.47;3.20;;;9.20;99.90;;;-141.84;84.35;18769.34;5015133;28;20604;-59
2022/11/02 01:49:02;;;;;;;4.17;3.00;;;9.30;99.90;;;-141.84;84.25;18775.44;5014296;28;20227;-60
2022/11/02 01:51:35;;;;;;;4.20;3.00;;;9.20;99.90;;;-141.84;84.06;18757.16;5032302;28;20236;-61
2022/11/02 01:54:10;;;;;;;5.77;3.03;;;9.30;99.90;;;-141.84;83.38;18775.44;5033789;28;20280;-60
2022/11/02 01:56:41;;;;;;;5.23;3.00;;;9.30;99.90;;;-141.84;83.71;18779.50;5034266;28;20220;-60
2022/11/02 01:59:17;;;;;;;4.87;3.13;;;9.30;99.90;;;-141.84;82.60;18793.72;5033859;28;20637;-60
2022/11/02 02:01:45;;;;;;;4.37;3.20;;;9.40;99.90;;;-141.84;82.74;18814.03;5033843;28;20716;-59
2022/11/02 02:04:15;;;;;;;6.47;3.03;;;9.40;99.90;;;-141.84;83.18;18793.72;5034596;28;20212;-61
2022/11/02 02:06:44;;;;;;;5.83;3.13;;;9.40;99.90;;;-141.84;82.71;18765.28;5033880;28;20709;-59
2022/11/02 02:09:15;;;;;;;6.10;3.53;;;9.50;99.90;;;-141.84;82.63;18797.78;5033587;28;20229;-60
2022/11/02 02:11:43;;;;;;;7.27;3.80;;;9.50;99.90;;;-141.84;81.66;18820.16;5033929;28;20225;-59
2022/11/02 02:14:16;;;;;;;6.83;3.57;;;9.50;99.90;;;-141.84;82.60;18822.19;5033346;28;20291;-60
2022/11/02 02:17:05;;;;;;;5.17;3.00;;;9.50;99.90;;;-141.84;82.95;18785.59;5033796;28;20226;-59
2022/11/02 02:19:44;;;;;;;6.57;3.07;;;9.50;99.90;;;-141.84;82.89;18818.09;5033563;28;20209;-61
2022/11/02 02:22:36;;;;;;;4.07;3.00;;;9.50;99.90;;;-141.84;81.84;18795.75;5034184;28;20210;-63
2022/11/02 02:25:26;;;;;;;3.60;2.70;;;9.50;99.90;;;-141.84;81.14;18803.88;5033573;28;20563;-59
2022/11/02 02:28:18;;;;;;;6.00;3.00;;;9.60;99.90;;;-141.84;80.43;18824.22;5033914;28;20693;-59
2022/11/02 02:30:56;;;;;;;5.30;2.93;;;9.70;99.90;;;-141.84;80.00;18848.59;4994142;28;20211;-59
2022/11/02 02:33:32;;;;;;;5.97;3.33;;;9.70;99.90;;;-141.84;79.75;18858.75;4993992;28;20223;-61
2022/11/02 02:36:10;;;;;;;4.27;2.63;;;9.70;99.90;;;-141.84;80.25;18822.19;4993861;28;20230;-60
2022/11/02 02:38:46;;;;;;;4.57;2.70;;;9.70;99.90;;;-141.84;80.07;18846.56;5012797;28;20645;-60
2022/11/02 02:41:24;;;;;;;3.90;2.50;;;9.70;99.90;;;-141.84;80.74;18824.22;5013470;28;20234;-62
2022/11/02 02:43:58;;;;;;;5.67;2.80;;;9.60;99.90;;;-141.84;81.47;18824.22;5012104;28;20365;-60
2022/11/02 02:46:34;;;;;;;4.17;2.63;;;9.60;99.90;;;-141.84;81.79;18775.44;5013430;28;20191;-60
2022/11/02 02:49:09;;;;;;;4.63;2.70;;;9.60;99.90;;;-141.84;81.51;18854.69;5013933;28;20187;-59
2022/11/02 02:51:40;;;;;;;5.40;2.90;;;9.60;99.90;;;-141.84;79.95;18844.53;5013402;28;20237;-60
2022/11/02 02:54:15;;;;;;;3.33;2.60;;;9.70;99.90;;;-141.84;79.43;18838.44;5013129;28;20725;-60
2022/11/02 02:56:49;;;;;;;3.93;2.40;;;9.70;99.90;;;-141.84;80.25;18842.50;5013328;28;20716;-59
2022/11/02 02:59:24;;;;;;;3.37;2.40;;;9.70;99.90;;;-141.84;80.55;18854.69;5012856;28;20234;-60
2022/11/02 03:01:55;;;;;;;4.37;2.30;;;9.60;99.90;;;-141.84;81.47;18816.06;5013237;28;20227;-61
2022/11/02 03:04:25;;;;;;;3.57;2.40;;;9.60;99.90;;;-141.84;81.34;18834.38;5013093;28;20242;-60
2022/11/02 03:06:59;;;;;;;4.87;2.60;;;9.60;99.90;;;-141.84;80.90;18830.31;5013577;28;20219;-60
2022/11/02 03:09:37;;;;;;;3.97;2.43;;;9.50;99.90;;;-141.84;82.17;18840.47;5012437;28;20238;-60
2022/11/02 03:12:23;;;;;;;3.70;2.33;;;9.40;99.90;;;-141.84;82.63;18826.25;5012926;28;20233;-60
2022/11/02 03:15:09;;;;;;;4.87;2.10;;;9.40;99.90;;;-141.84;82.03;18830.31;5012737;28;20779;-60
2022/11/02 03:17:52;;;;;;;4.77;2.33;;;9.40;99.90;;;-141.84;81.16;18834.38;5012733;28;20721;-60
2022/11/02 03:20:28;;;;;;;3.37;2.30;;;9.40;99.90;;;-141.84;81.17;18824.22;5012881;28;20230;-60
2022/11/02 03:23:12;;;;;;;5.63;2.90;;;9.40;99.90;;;-141.84;81.58;18805.91;5012591;28;20226;-60
2022/11/02 03:25:54;;;;;;;5.40;2.37;;;9.30;99.90;;;-141.84;80.94;18799.81;5012284;28;20246;-59
2022/11/02 03:28:33;;;;;;;2.23;1.67;;;9.30;99.90;;;-141.84;81.01;18830.31;5012532;28;20194;-61
2022/11/02 03:31:09;;;;;;;6.13;2.17;;;9.30;99.90;;;-141.84;81.01;18785.59;5013195;28;20560;-62
2022/11/02 03:33:46;;;;;;;3.23;2.00;;;9.20;99.90;;;-141.84;79.81;18814.03;5012312;28;20218;-59
2022/11/02 03:36:20;;;;;;;5.10;2.20;;;9.30;99.90;;;-141.84;79.65;18840.47;5012759;28;20253;-60
2022/11/02 03:38:56;;;;;;;5.43;2.00;;;9.30;99.90;;;-141.84;80.07;18793.72;4992829;28;20226;-61
2022/11/02 03:41:27;;;;;;;5.43;1.97;;;9.30;99.90;;;-141.84;79.24;18852.66;5008988;28;20276;-60
2022/11/02 03:44:03;;;;;;;3.83;1.70;;;9.50;99.90;;;-141.84;79.25;18838.44;5012137;28;20230;-60
2022/11/02 03:46:38;;;;;;;3.23;1.90;;;9.40;99.90;;;-141.84;78.36;18872.97;5012210;28;20565;-60
2022/11/02 03:49:13;;;;;;;8.60;2.00;;;9.40;99.90;;;-141.84;78.24;18895.31;5012904;28;20189;-61
2022/11/02 03:51:45;;;;;;;4.43;1.97;;;9.40;99.90;;;-141.84;78.20;18846.56;5012032;28;20834;-60
2022/11/02 03:54:25;;;;;;;6.20;2.37;;;9.50;99.90;;;-141.84;78.94;18828.28;5011681;28;20246;-61
2022/11/02 03:57:02;;;;;;;8.57;2.50;;;9.40;99.90;;;-141.84;77.74;18866.88;5012149;28;20226;-61
2022/11/02 03:59:35;;;;;;;3.33;1.77;;;9.50;99.90;;;-141.84;77.92;18893.28;5012107;28;20227;-61
2022/11/02 04:02:04;;;;;;;4.00;1.90;;;9.50;99.90;;;-141.84;77.42;18917.66;5011841;28;20230;-59
2022/11/02 04:04:33;;;;;;;8.33;1.90;;;9.50;99.90;;;-141.84;77.21;18872.97;5011989;28;20320;-61
2022/11/02 04:07:01;;;;;;;5.20;2.00;;;9.50;99.90;;;-141.84;77.14;18881.09;5011982;28;20214;-60
2022/11/02 04:09:29;;;;;;;5.90;2.63;;;9.50;99.90;;;-141.84;77.69;18854.69;5011734;28;20234;-61
2022/11/02 04:14:42;;;;;;;2.73;1.97;;;9.50;99.90;;;-141.84;78.23;18921.75;5011875;28;20241;-60
2022/11/02 04:19:57;;;;;;;6.33;1.93;;;9.50;99.90;;;-141.84;77.52;18895.31;4982540;28;20234;-61
2022/11/02 04:25:17;;;;;;;4.40;1.90;;;9.60;99.90;;;-141.84;78.22;18877.03;5012059;28;20198;-60
2022/11/02 04:27:48;;;;;;;7.00;2.60;;;9.50;99.90;;;-141.84;78.59;18879.06;5011555;28;20210;-62
2022/11/02 04:30:19;;;;;;;5.10;2.23;;;9.50;99.90;;;-141.84;78.55;18856.72;5011228;28;20296;-61
2022/11/02 04:35:37;;;;;;;7.00;2.00;;;9.50;99.90;;;-141.84;76.58;18923.78;5011004;28;20800;-61
2022/11/02 04:43:38;;;;;;;3.40;2.00;;;9.60;99.90;;;-141.84;78.13;18899.38;5010750;28;20301;-59
2022/11/02 04:46:06;;;;;;;6.07;2.07;;;9.60;99.90;;;-141.84;77.14;18895.31;5011104;28;20241;-59
2022/11/02 04:48:35;;;;;;;5.93;1.83;;;9.70;99.90;;;-141.84;76.56;18915.63;5011078;28;20235;-59
2022/11/02 04:51:03;;;;;;;4.83;1.90;;;9.70;99.90;;;-141.84;75.70;18948.16;5010989;28;20265;-61
2022/11/02 04:53:31;;;;;;;3.67;2.17;;;9.70;99.90;;;-141.84;76.77;18889.22;5010706;28;20646;-59
2022/11/02 04:55:59;;;;;;;3.93;1.80;;;9.70;99.90;;;-141.84;76.85;18927.84;5010859;28;20231;-61
2022/11/02 04:58:27;;;;;;;4.83;1.70;;;9.70;99.90;;;-141.84;77.07;18881.09;5011020;28;20670;-59
2022/11/02 05:00:55;;;;;;;6.70;2.10;;;9.70;99.90;;;-141.84;77.21;18948.16;5011742;28;20210;-60
2022/11/02 05:03:23;;;;;;;4.20;1.97;;;9.70;99.90;;;-141.84;77.70;18899.38;5011257;28;20250;-61
2022/11/02 05:05:55;;;;;;;4.40;1.90;;;9.60;99.90;;;-141.84;76.05;18923.78;5010449;28;20242;-60
2022/11/02 05:08:23;;;;;;;4.97;1.70;;;9.70;99.90;;;-141.84;76.88;18909.53;5010562;28;20235;-59
2022/11/02 05:10:55;;;;;;;3.93;2.00;;;9.70;99.90;;;-141.84;77.01;18933.94;5010899;28;20230;-59
2022/11/02 05:13:24;;;;;;;6.17;1.90;;;9.60;99.90;;;-141.84;77.01;18911.56;5010849;28;20218;-61
2022/11/02 05:15:55;;;;;;;5.20;2.10;;;9.60;99.90;;;-141.84;77.93;18846.56;5011174;28;20206;-60
2022/11/02 05:18:24;;;;;;;5.63;2.30;;;9.50;99.90;;;-141.84;77.01;18931.91;5010527;28;20230;-60
2022/11/02 05:20:53;;;;;;;5.73;2.10;;;9.60;99.90;;;-141.84;76.72;18907.50;5011319;28;20668;-62
2022/11/02 05:23:24;;;;;;;5.33;2.07;;;9.70;99.90;;;-141.84;77.23;18905.47;5010907;28;20233;-61
2022/11/02 05:25:57;;;;;;;5.80;2.20;;;9.70;99.90;;;-141.84;77.56;18911.56;5011214;28;20230;-60
2022/11/02 05:28:27;;;;;;;6.17;2.07;;;9.60;99.90;;;-141.84;76.67;18903.44;5010454;28;20195;-62
2022/11/02 05:30:57;;;;;;;4.67;2.33;;;9.70;99.90;;;-141.84;76.12;18946.13;5010913;28;20662;-61
2022/11/02 05:33:25;;;;;;;8.23;2.20;;;9.70;99.90;;;-141.84;75.43;18976.59;5010302;28;20230;-60
2022/11/02 05:35:59;;;;;;;4.03;2.10;;;9.80;99.90;;;-141.84;76.20;18996.91;5010695;28;20259;-61
2022/11/02 05:38:29;;;;;;;7.27;1.90;;;9.80;99.90;;;-141.84;76.35;18944.09;5010448;28;20234;-61
2022/11/02 05:40:59;;;;;;;7.07;1.97;;;9.80;99.90;;;-141.84;76.40;18950.19;5010195;28;20294;-60
2022/11/02 05:43:28;;;;;;;5.03;2.10;;;9.80;99.90;;;-141.84;76.14;18925.81;5010507;28;20187;-61
2022/11/02 05:45:59;;;;;;;4.67;2.00;;;9.80;99.90;;;-141.84;75.85;18964.41;5011013;28;20234;-61
2022/11/02 05:48:30;;;;;;;5.40;1.97;;;9.90;99.90;;;-141.84;75.03;18986.75;5010183;28;20709;-61
2022/11/02 05:51:01;;;;;;;3.40;1.80;;;10.00;99.90;;;-141.84;75.12;18978.63;5010328;28;20230;-59
2022/11/02 05:53:32;;;;;;;6.10;1.93;;;10.00;99.90;;;-141.84;75.08;18954.25;5010117;28;20634;-61
2022/11/02 05:56:03;;;;;;;5.37;2.63;;;10.00;99.90;;;-141.84;74.32;18996.91;5010563;28;20265;-60
2022/11/02 05:58:33;;;;;;;6.53;2.00;;;10.10;99.90;;;-141.84;75.47;18968.47;5009964;28;20179;-61
2022/11/02 06:01:03;;;;;;;4.40;1.90;;;10.20;99.90;;;-141.84;76.09;18933.94;5010911;28;20187;-61
2022/11/02 06:03:32;;;;;;;5.80;2.10;;;10.00;99.90;;;-141.84;75.47;18954.25;5010198;28;20230;-60
2022/11/02 06:06:03;;;;;;;5.57;2.10;;;10.10;99.90;;;-141.84;74.81;18964.41;5010433;28;20647;-60
2022/11/02 06:08:34;;;;;;;4.23;2.23;;;10.20;99.90;;;-141.84;75.24;18946.13;5009959;28;20807;-60
2022/11/02 06:11:05;;;;;;;4.87;1.93;;;10.10;99.90;;;-141.84;74.75;18978.63;5010539;28;20226;-61
2022/11/02 06:13:33;;;;;;;4.50;1.90;;;10.10;99.90;;;-141.84;74.24;18982.69;5009610;28;20207;-60
2022/11/02 06:16:02;;;;;;;6.63;2.13;;;10.20;99.90;;;-141.84;74.82;18972.53;5011235;28;20199;-61
2022/11/02 06:18:31;;;;;;;7.07;2.10;;;10.20;99.90;;;-141.84;75.50;18996.91;5012824;28;20777;-60
2022/11/02 06:21:00;;;;;;;5.70;1.97;;;10.10;99.90;;;-141.84;74.75;19003.00;5013769;28;20551;-61
2022/11/02 06:23:29;;;;;;;4.10;2.00;;;10.20;99.90;;;-141.84;74.93;18990.81;5013504;28;20230;-61
2022/11/02 06:26:00;;;;;;;5.17;2.30;;;10.20;99.90;;;-141.84;74.67;19005.03;5013791;28;20230;-60
2022/11/02 06:28:30;;;;;;;5.17;1.97;;;10.20;99.90;;;-141.84;74.44;19007.06;5013555;28;20204;-60
2022/11/02 06:30:58;;;;;;;6.57;2.23;;;10.30;99.90;;;-141.84;75.20;18976.59;5014225;28;20269;-60
2022/11/02 06:33:26;;;;;;;4.87;2.40;;;10.20;99.90;;;-141.84;75.50;18962.38;5013599;28;20231;-59
2022/11/02 06:35:55;;;;;;;4.87;2.27;;;10.20;99.90;;;-141.84;75.61;19005.03;5013548;28;20561;-60
2022/11/02 06:38:24;;;;;;;6.70;2.40;;;10.20;99.90;;;-141.84;75.76;18998.94;5013087;28;20280;-60
2022/11/02 06:40:58;;;;;;;6.27;2.30;;;10.10;99.90;;;-141.84;75.10;18990.81;5013331;28;20230;-60
2022/11/02 06:43:26;;;;;;;4.70;2.13;;;10.20;99.90;;;-141.84;74.83;18998.94;5013071;28;20638;-60
2022/11/02 06:45:55;;;;;;;5.30;2.33;;;10.20;99.90;;;-141.84;75.63;18980.66;5013933;28;20242;-60
2022/11/02 06:48:24;;;;;;;6.33;2.57;;;10.20;99.90;;;-141.84;75.72;18980.66;5013109;28;20242;-59
2022/11/02 06:50:58;;;;;;;6.17;2.67;;;10.20;99.90;;;-141.84;75.27;18982.69;5013313;28;20292;-60
2022/11/02 06:53:26;;;;;;;6.17;2.23;;;10.20;99.90;;;-141.84;74.38;18994.88;5013138;28;20231;-60
2022/11/02 06:55:56;;;;;;;6.27;2.47;;;10.30;99.90;;;-141.84;74.25;18976.59;5013210;28;20639;-62
2022/11/02 06:58:27;;;;;;;6.23;2.37;;;10.30;99.90;;;-141.84;74.20;19025.38;5013261;28;20202;-61
2022/11/02 07:00:59;;;;;;;9.47;2.40;;;10.40;99.90;;;-141.84;74.06;19017.25;5013857;28;20195;-61
2022/11/02 07:03:28;;;;;;;4.87;2.60;;;10.40;99.90;;;-141.84;73.08;19057.88;5012825;28;20314;-60
2022/11/02 07:05:57;;;;;;;6.20;2.60;;;10.50;99.90;;;-141.84;73.22;19074.13;5013075;28;20234;-60
2022/11/02 07:08:27;;;;;;;8.53;3.07;;;10.50;99.90;;;-141.84;72.80;19066.00;5012430;28;20230;-60
2022/11/02 07:10:55;;;;;;;5.33;2.30;;;10.60;99.90;;;-141.84;72.86;19045.69;5012469;28;20229;-59
2022/11/02 07:13:25;;;;;;;6.80;2.47;;;10.60;99.90;;;-141.84;73.29;19092.41;5012674;28;20260;-60
2022/11/02 07:15:54;;;;;;;5.03;2.10;;;10.70;99.90;;;-141.84;71.89;19086.31;5013313;28;20202;-62
2022/11/02 07:18:22;;;;;;;6.20;2.20;;;10.80;99.90;;;-141.84;71.06;19122.91;5012352;28;20285;-61
2022/11/02 07:20:51;;;;;;;3.83;2.43;;;10.90;99.90;;;-141.84;71.28;19108.69;5012803;28;20611;-60
2022/11/02 07:23:22;;;;;;;6.83;2.20;;;11.00;99.90;;;-141.84;71.20;19153.38;5012473;28;20234;-59
2022/11/02 07:25:50;;;;;;;4.63;2.20;;;11.00;99.90;;;-141.84;71.29;19096.47;5012650;28;20234;-60
2022/11/02 07:28:18;;;;;;;6.70;2.23;;;11.10;99.90;;;-141.84;70.51;19133.06;5012720;28;20249;-60
2022/11/02 07:30:48;;;;;;;5.53;1.90;;;11.20;99.90;;;-141.84;69.28;19216.38;5032048;28;20222;-60
2022/11/02 07:33:16;;;;;;;4.87;2.50;;;11.30;99.90;;;-141.84;70.01;19202.16;5032250;28;20240;-60
2022/11/02 07:35:44;;;;;;;4.00;2.00;;;11.30;99.90;;;-141.84;69.95;19159.47;5032098;28;20717;-59
2022/11/02 07:38:12;;;;;;;7.00;2.33;;;11.40;99.90;;;-141.84;69.82;19167.59;5016565;28;20740;-60
2022/11/02 07:40:40;;;;;;;4.30;2.37;;;11.50;99.90;;;-141.84;68.84;19212.31;5022563;28;20242;-60
2022/11/02 07:43:08;;;;;;;6.90;2.60;;;11.50;99.90;;;-141.84;68.75;19248.88;5032187;28;20312;-59
2022/11/02 07:45:37;;;;;;;6.40;2.15;;;11.60;99.90;;;-141.84;69.57;19214.34;5031700;28;20271;-60
2022/11/02 07:48:06;;;;;;;6.30;2.23;;;11.60;99.90;;;-141.84;68.77;19212.31;5031976;28;20256;-60
2022/11/02 07:50:34;;;;;;;6.13;2.10;;;11.70;99.90;;;-141.84;67.36;19263.09;5031627;28;20226;-60
2022/11/02 07:53:02;;;;;;;5.20;2.00;;;11.80;99.90;;;-141.84;68.15;19277.34;5031652;28;20226;-60
2022/11/02 07:55:31;;;;;;;7.20;2.63;;;11.80;99.90;;;-141.84;67.99;19303.75;5031018;28;20229;-60
2022/11/02 07:58:02;;;;;;;6.47;2.10;;;11.90;99.90;;;-141.84;68.18;19267.16;5031829;28;20232;-60
2022/11/02 08:00:34;;;;;;;7.63;2.00;;;11.90;99.90;;;-141.84;67.57;19311.88;5031355;28;20280;-60
2022/11/02 08:03:03;;;;;;;5.20;2.08;;;12.10;99.90;;;-141.84;66.30;19354.56;5031413;28;20611;-59
2022/11/02 08:05:36;;;;;;;5.87;2.20;;;12.30;99.90;;;-141.84;66.02;19344.41;5031411;28;20748;-60
2022/11/02 08:08:07;;;;;;;6.90;2.30;;;12.40;99.90;;;-141.84;66.91;19313.91;5031215;28;20221;-60
2022/11/02 08:10:37;;;;;;;5.73;2.53;;;12.40;99.90;;;-141.84;66.80;19358.63;5031554;28;20221;-60
2022/11/02 08:13:08;;;;;;;5.00;1.88;;;12.40;99.90;;;-141.84;67.17;19364.72;5031774;28;20190;-60
2022/11/02 08:15:36;;;;;;;5.80;2.05;;;12.40;99.90;;;-141.84;65.39;19423.66;5011482;28;20232;-60
2022/11/02 08:18:07;;;;;;;8.38;2.72;;;12.60;99.90;;;-141.84;65.93;19415.50;5011548;28;20396;-59
2022/11/02 08:20:37;;;;;;;4.07;1.95;;;12.80;99.90;;;-141.84;64.84;19441.94;5011407;28;20239;-60
2022/11/02 08:23:06;;;;;;;4.68;1.95;;;12.90;99.90;;;-141.84;64.34;19464.28;5011583;28;20230;-60
2022/11/02 08:25:37;;;;;;;6.22;2.30;;;13.10;99.90;;;-141.84;62.85;19559.81;5011492;28;20773;-61
2022/11/02 08:28:07;;;;;;;6.65;2.83;;;13.30;99.90;;;-141.84;62.02;19598.41;5011856;28;20654;-60
2022/11/02 08:30:37;;;;;;;6.20;2.47;;;13.60;99.90;;;-141.84;62.14;19578.09;5011174;28;20235;-61
2022/11/02 08:33:10;;;;;;;5.32;2.10;;;13.60;99.90;;;-141.84;63.09;19539.47;5011567;28;20768;-61
2022/11/02 08:35:40;;;;;;;5.80;2.10;;;13.50;99.90;;;-141.84;62.90;19551.69;5011581;28;20222;-60
2022/11/02 08:38:09;;;;;;;7.50;1.88;;;13.60;99.90;;;-141.84;62.72;19576.06;5030171;28;20233;-59
2022/11/02 08:40:38;;;;;;;8.73;2.13;;;13.60;99.90;;;-141.84;63.29;19551.69;5029699;28;20667;-60
2022/11/02 08:43:09;;;;;;;6.13;2.30;;;13.60;99.90;;;-141.84;62.79;19594.34;5030280;28;20214;-59
2022/11/02 08:45:39;;;;;;;7.32;2.20;;;13.60;99.90;;;-141.84;62.75;19588.25;5030257;28;20701;-60
2022/11/02 08:48:27;;;;;;;3.00;1.73;;;13.60;99.90;;;-141.84;63.34;19541.50;5031022;28;20295;-60
2022/11/02 08:50:57;;;;;;;6.18;2.13;;;13.60;99.90;;;-141.84;63.06;19588.25;5026731;28;20234;-60
2022/11/02 08:53:25;;;;;;;8.27;2.50;;;13.60;99.90;;;-141.84;63.13;19610.59;5031230;28;20237;-60
2022/11/02 08:55:53;;;;;;;7.28;2.47;;;13.60;99.90;;;-141.84;62.82;19569.97;5031001;28;20230;-60
2022/11/02 08:58:21;;;;;;;8.93;2.50;;;13.70;99.90;;;-141.84;62.27;19657.34;5031143;28;20202;-62
2022/11/02 09:00:52;;;;;;;6.95;2.35;;;13.80;99.90;;;-141.84;62.32;19641.09;5031271;28;20213;-61
2022/11/02 09:03:23;;;;;;;6.65;2.55;;;13.90;99.90;;;-141.84;61.83;19630.94;5030889;28;20245;-59
2022/11/02 09:06:00;;;;;;;5.65;2.28;;;14.00;99.90;;;-141.84;62.20;19643.13;5030723;28;20230;-60
2022/11/02 09:08:30;;;;;;;6.72;2.50;;;14.00;99.90;;;-141.84;61.29;19687.84;5031131;28;20598;-59
2022/11/02 09:11:01;;;;;;;6.20;2.30;;;14.10;99.90;;;-141.84;61.22;19679.72;5030806;28;20337;-62
2022/11/02 09:13:30;;;;;;;6.25;2.67;;;14.10;99.90;;;-141.84;60.77;19671.56;5030884;28;20190;-59
2022/11/02 09:16:00;;;;;;;6.25;2.03;;;14.10;99.90;;;-141.84;61.37;19712.22;5031414;28;20547;-60
2022/11/02 09:18:28;;;;;;;9.13;2.58;;;14.10;99.90;;;-141.84;60.47;19730.50;5030702;28;20230;-63
2022/11/02 09:21:02;;;;;;;9.40;2.10;;;14.20;99.90;;;-141.84;59.75;19726.44;5030361;28;20238;-63
2022/11/02 09:23:31;;;;;;;8.75;2.50;;;14.40;99.90;;;-141.84;59.74;19752.88;5030733;28;20255;-59
2022/11/02 09:25:59;;;;;;;7.55;1.90;;;14.40;99.90;;;-141.84;59.70;19789.44;5030555;28;20248;-60
2022/11/02 09:28:27;;;;;;;5.10;1.98;;;14.40;99.90;;;-141.84;59.41;19746.78;5030564;28;20666;-59
2022/11/02 09:30:55;;;;;;;8.45;2.22;;;14.40;99.90;;;-141.84;59.56;19781.31;5030810;28;20577;-60
2022/11/02 09:33:23;;;;;;;4.47;2.08;;;14.50;99.90;;;-141.84;59.60;19801.66;5026507;28;20233;-60
2022/11/02 09:35:51;;;;;;;7.80;2.58;;;14.50;99.90;;;-141.84;59.60;19756.94;5023337;28;20218;-60
2022/11/02 09:38:21;;;;;;;4.45;2.13;;;14.40;99.90;;;-141.84;59.33;19809.78;5029947;28;20237;-59
2022/11/02 09:41:05;;;;;;;5.47;1.98;;;14.40;99.90;;;-141.84;59.60;19803.69;5029568;28;20226;-61
2022/11/02 09:43:47;;;;;;;5.00;2.00;;;14.50;99.90;;;-141.84;59.44;19801.66;5028168;28;20198;-61
2022/11/02 09:46:21;;;;;;;4.35;2.08;;;14.50;99.90;;;-141.84;58.68;19817.91;5023243;28;20206;-61
2022/11/02 09:48:55;;;;;;;7.88;2.50;;;14.60;99.90;;;-141.84;58.16;19884.97;5029905;28;20205;-60
2022/11/02 09:51:31;;;;;;;3.03;1.88;;;14.70;99.90;;;-141.84;57.97;19850.41;5029848;28;20224;-61
2022/11/02 09:54:11;;;;;;;6.88;2.28;;;14.80;99.90;;;-141.84;57.63;19899.19;5033423;28;20228;-60
2022/11/02 09:56:45;;;;;;;6.45;2.13;;;14.80;99.90;;;-141.84;57.80;19864.66;5029682;28;20218;-61
2022/11/02 09:59:15;;;;;;;6.75;2.10;;;14.80;99.90;;;-141.84;58.02;19882.94;5025358;28;20222;-61
2022/11/02 10:02:00;;;;;;;4.43;2.00;;;14.80;99.90;;;-141.84;57.09;19891.06;5033482;28;20221;-61
2022/11/02 10:05:00;;;;;;;6.60;2.47;;;14.80;99.90;;;-141.84;56.82;19913.44;5028357;28;20190;-61
2022/11/02 10:08:04;;;;;;;5.47;1.95;;;14.80;99.90;;;-141.84;56.76;19939.84;5028865;28;20224;-60
2022/11/02 10:10:39;;;;;;;8.40;2.97;;;14.80;99.90;;;-141.84;57.43;19927.66;5008786;28;20195;-60
2022/11/02 10:13:33;;;;;;;8.63;2.50;;;14.80;99.90;;;-141.84;56.87;19915.47;5031225;28;20194;-60
2022/11/02 10:16:07;;;;;;;4.95;2.45;;;14.80;99.90;;;-141.84;57.03;19931.72;5031589;28;20219;-60
2022/11/02 10:18:38;;;;;;;6.90;2.00;;;14.80;99.90;;;-141.84;56.35;19897.16;5013842;28;20225;-60
2022/11/02 10:21:13;;;;;;;9.20;1.98;;;14.70;99.90;;;-141.84;55.44;19939.84;5026493;28;20244;-60
2022/11/02 10:23:47;;;;;;;6.97;2.08;;;14.80;99.90;;;-141.84;54.64;20000.81;5033627;28;20229;-59
2022/11/02 10:26:28;;;;;;;7.60;2.08;;;14.80;99.90;;;-141.84;54.20;19968.31;5033545;28;20233;-61
2022/11/02 10:29:06;;;;;;;7.00;2.22;;;14.80;99.90;;;-141.84;54.70;19996.75;5033314;28;20727;-61
2022/11/02 10:31:34;;;;;;;8.00;1.85;;;14.80;99.90;;;-141.84;53.91;19990.66;5033596;28;20186;-59
2022/11/02 10:34:22;;;;;;;3.22;2.00;;;14.90;99.90;;;-141.84;53.59;20037.41;5034024;28;20279;-58
2022/11/02 10:37:13;;;;;;;3.47;1.77;;;15.00;99.90;;;-141.84;52.92;20039.44;5029500;28;20226;-63
2022/11/02 10:39:54;;;;;;;7.13;2.13;;;15.10;99.90;;;-141.84;53.11;20037.41;5024385;28;20241;-61
2022/11/02 10:42:52;;;;;;;7.60;3.08;;;15.10;99.90;;;-141.84;52.44;20092.28;5032600;28;20218;-61
2022/11/02 10:46:09;;;;;;;8.20;3.72;;;15.20;99.90;;;-141.84;52.66;20080.09;5032972;28;20254;-61
2022/11/02 10:48:50;;;;;;;7.60;2.40;;;15.20;99.90;;;-141.84;52.79;20074.00;4971616;28;20636;-61